Tuesday, January 15, 2019, 6:31 PM EST
Back to Local

KIPT, Williamsport-lycoming County

Location: Montoursville, PA, United States Lat: 41.25
Local Time: 6:31 PM EST (23:31 GMT) Lon: -76.917
Time Zone: US/Eastern Elev: 528 ft

Show me the last for .
Show Decoded

2019-01-15 17:54 METAR KIPT 152254Z 26006KT 10SM FEW055 M01/M08 A3011 RMK AO2 SLP205 T10111078 =
2019-01-15 16:54 METAR KIPT 152154Z 00000KT 10SM OVC050 M01/M07 A3010 RMK AO2 SLP202 T10061067 =
2019-01-15 15:54 METAR KIPT 152054Z 00000KT 10SM CLR 01/M09 A3012 RMK AO2 SLP205 T00111089 56013
                 =
2019-01-15 14:54 METAR KIPT 151954Z 27005KT 10SM CLR 02/M09 A3012 RMK AO2 SLP207 T00171089 =
2019-01-15 13:54 METAR KIPT 151854Z VRB03KT 10SM CLR 01/M09 A3014 RMK AO2 SLP212 T00061089 =
2019-01-15 12:54 METAR KIPT 151754Z 00000KT 10SM CLR M01/M09 A3016 RMK AO2 SLP219 T10111094 11006
                 21100 58027 =
2019-01-15 11:54 METAR KIPT 151654Z 26006KT 10SM CLR M02/M09 A3019 RMK AO2 SLP233 T10221094 =
2019-01-15 10:54 METAR KIPT 151554Z 28005KT 10SM FEW026 M03/M09 A3023 RMK AO2 SLP244 T10281089 =
2019-01-15 09:54 METAR KIPT 151454Z 28009KT 10SM CLR M04/M09 A3024 RMK AO2 SLP247 T10441094 53013
                 =
2019-01-15 08:54 METAR KIPT 151354Z 26007KT 10SM CLR M06/M09 A3023 RMK AO2 SLP244 T10561089 =
2019-01-15 07:54 METAR KIPT 151254Z 32003KT 10SM CLR M09/M12 A3021 RMK AO2 SLP237 T10891117 =
2019-01-15 06:54 METAR KIPT 151154Z 00000KT 10SM CLR M09/M12 A3020 RMK AO2 SLP234 T10891117 11067
                 21094 53012 =
2019-01-15 05:54 METAR KIPT 151054Z AUTO 34004KT 10SM CLR M08/M11 A3018 RMK AO2 SLP229 T10831111
                 $ =
2019-01-15 04:54 METAR KIPT 150954Z AUTO VRB05KT 10SM CLR M08/M11 A3017 RMK AO2 SLP224 T10831106
                 $ =
2019-01-15 03:54 METAR KIPT 150854Z AUTO 32004KT 10SM CLR M08/M10 A3016 RMK AO2 SLP221 T10781100
                 50001 $ =
2019-01-15 02:54 METAR KIPT 150754Z AUTO 00000KT 10SM CLR M08/M11 A3017 RMK AO2 SLP224 T10781106
                 $ =
2019-01-15 01:54 METAR KIPT 150654Z AUTO 00000KT 10SM CLR M07/M10 A3016 RMK AO2 SLP221 T10721100
                 =
2019-01-15 00:54 METAR KIPT 150554Z AUTO 00000KT 10SM CLR M07/M10 A3016 RMK AO2 SLP220 T10671100
                 11033 21072 58003 =
2019-01-14 23:54 METAR KIPT 150454Z AUTO 00000KT 10SM CLR M06/M09 A3017 RMK AO2 SLP224 T10611089
                 400221106 =
2019-01-14 22:54 METAR KIPT 150354Z AUTO 00000KT 10SM CLR M06/M09 A3017 RMK AO2 SLP225 T10561094
                 =
2019-01-14 21:54 METAR KIPT 150254Z 00000KT 10SM CLR M05/M09 A3017 RMK AO2 SLP223 T10501089 56001
                 =
2019-01-14 20:54 METAR KIPT 150154Z 00000KT 10SM CLR M04/M09 A3017 RMK AO2 SLP223 T10441089 =
2019-01-14 19:54 METAR KIPT 150054Z 00000KT 10SM CLR M04/M10 A3017 RMK AO2 SLP224 T10441100 =
2019-01-14 18:54 METAR KIPT 142354Z 00000KT 10SM CLR M03/M08 A3017 RMK AO2 SLP224 T10331083 10022
                 21033 53003 =

Support USWX by starting your Amazon purchase here.